sensor_id;sensor_type;location;lat;lon;timestamp;pressure;altitude;pressure_sealevel;temperature;humidity
32081;BME280;18593;51.426;7.030;2023-11-21T00:01:40;100003.13;;;8.99;77.02
32081;BME280;18593;51.426;7.030;2023-11-21T00:04:09;100007.44;;;9.00;77.48
32081;BME280;18593;51.426;7.030;2023-11-21T00:06:37;100001.28;;;9.00;77.59
32081;BME280;18593;51.426;7.030;2023-11-21T00:09:05;99997.81;;;8.99;77.85
32081;BME280;18593;51.426;7.030;2023-11-21T00:11:34;100005.00;;;8.99;78.17
32081;BME280;18593;51.426;7.030;2023-11-21T00:14:01;100004.19;;;8.98;78.20
32081;BME280;18593;51.426;7.030;2023-11-21T00:16:29;100006.59;;;9.00;78.43
32081;BME280;18593;51.426;7.030;2023-11-21T00:18:57;100000.03;;;9.02;78.26
32081;BME280;18593;51.426;7.030;2023-11-21T00:21:26;100011.06;;;9.06;78.55
32081;BME280;18593;51.426;7.030;2023-11-21T00:23:53;100016.41;;;9.06;78.64
32081;BME280;18593;51.426;7.030;2023-11-21T00:26:21;100015.34;;;9.07;78.93
32081;BME280;18593;51.426;7.030;2023-11-21T00:28:59;100020.50;;;9.09;79.15
32081;BME280;18593;51.426;7.030;2023-11-21T00:31:27;100023.34;;;9.07;79.09
32081;BME280;18593;51.426;7.030;2023-11-21T00:33:56;100019.69;;;9.08;79.27
32081;BME280;18593;51.426;7.030;2023-11-21T00:36:25;100025.59;;;9.10;79.25
32081;BME280;18593;51.426;7.030;2023-11-21T00:38:55;100020.84;;;9.12;79.37
32081;BME280;18593;51.426;7.030;2023-11-21T00:41:23;100022.50;;;9.13;79.19
32081;BME280;18593;51.426;7.030;2023-11-21T00:43:51;100018.00;;;9.14;79.39
32081;BME280;18593;51.426;7.030;2023-11-21T00:46:19;100028.66;;;9.14;79.31
32081;BME280;18593;51.426;7.030;2023-11-21T00:48:46;100022.50;;;9.13;79.42
32081;BME280;18593;51.426;7.030;2023-11-21T00:51:16;100022.72;;;9.12;79.39
32081;BME280;18593;51.426;7.030;2023-11-21T00:53:45;100018.81;;;9.14;79.10
32081;BME280;18593;51.426;7.030;2023-11-21T00:56:12;100026.19;;;9.12;78.88
32081;BME280;18593;51.426;7.030;2023-11-21T00:58:42;100024.56;;;9.11;78.91
32081;BME280;18593;51.426;7.030;2023-11-21T01:01:10;100019.22;;;9.11;78.67
32081;BME280;18593;51.426;7.030;2023-11-21T01:03:37;100015.53;;;9.12;78.54
32081;BME280;18593;51.426;7.030;2023-11-21T01:06:06;100021.25;;;9.16;78.74
32081;BME280;18593;51.426;7.030;2023-11-21T01:08:35;100021.03;;;9.17;78.71
32081;BME280;18593;51.426;7.030;2023-11-21T01:11:05;100015.94;;;9.16;78.52
32081;BME280;18593;51.426;7.030;2023-11-21T01:13:34;100024.13;;;9.14;78.65
32081;BME280;18593;51.426;7.030;2023-11-21T01:16:02;100027.84;;;9.13;78.82
32081;BME280;18593;51.426;7.030;2023-11-21T01:18:30;100032.94;;;9.15;78.76
32081;BME280;18593;51.426;7.030;2023-11-21T01:20:57;100032.34;;;9.13;78.57
32081;BME280;18593;51.426;7.030;2023-11-21T01:23:25;100031.50;;;9.12;78.90
32081;BME280;18593;51.426;7.030;2023-11-21T01:25:53;100039.47;;;9.12;79.09
32081;BME280;18593;51.426;7.030;2023-11-21T01:28:22;100040.09;;;9.14;79.21
32081;BME280;18593;51.426;7.030;2023-11-21T01:30:49;100045.19;;;9.16;79.27
32081;BME280;18593;51.426;7.030;2023-11-21T01:33:17;100044.16;;;9.17;79.44
32081;BME280;18593;51.426;7.030;2023-11-21T01:35:44;100043.97;;;9.18;79.64
32081;BME280;18593;51.426;7.030;2023-11-21T01:38:12;100050.50;;;9.22;79.77
32081;BME280;18593;51.426;7.030;2023-11-21T01:40:40;100053.75;;;9.24;79.85
32081;BME280;18593;51.426;7.030;2023-11-21T01:43:07;100049.84;;;9.27;79.88
32081;BME280;18593;51.426;7.030;2023-11-21T01:45:37;100041.66;;;9.28;80.00
32081;BME280;18593;51.426;7.030;2023-11-21T01:48:05;100050.25;;;9.31;80.00
32081;BME280;18593;51.426;7.030;2023-11-21T01:50:33;100054.53;;;9.32;80.25
32081;BME280;18593;51.426;7.030;2023-11-21T01:53:01;100050.63;;;9.34;80.14
32081;BME280;18593;51.426;7.030;2023-11-21T01:55:30;100050.41;;;9.36;80.38
32081;BME280;18593;51.426;7.030;2023-11-21T01:57:58;100051.22;;;9.36;80.70
32081;BME280;18593;51.426;7.030;2023-11-21T02:00:26;100048.38;;;9.38;80.59
32081;BME280;18593;51.426;7.030;2023-11-21T02:02:58;100049.38;;;9.37;80.57
32081;BME280;18593;51.426;7.030;2023-11-21T02:05:26;100052.03;;;9.37;80.79
32081;BME280;18593;51.426;7.030;2023-11-21T02:07:55;100048.38;;;9.38;80.80
32081;BME280;18593;51.426;7.030;2023-11-21T02:10:22;100057.16;;;9.38;81.19
32081;BME280;18593;51.426;7.030;2023-11-21T02:12:50;100063.31;;;9.39;81.02
32081;BME280;18593;51.426;7.030;2023-11-21T02:15:18;100070.25;;;9.40;81.15
32081;BME280;18593;51.426;7.030;2023-11-21T02:17:47;100069.22;;;9.41;81.31
32081;BME280;18593;51.426;7.030;2023-11-21T02:20:19;100066.56;;;9.41;81.25
32081;BME280;18593;51.426;7.030;2023-11-21T02:22:52;100069.84;;;9.43;81.35
32081;BME280;18593;51.426;7.030;2023-11-21T02:25:24;100068.59;;;9.45;81.26
32081;BME280;18593;51.426;7.030;2023-11-21T02:27:51;100072.28;;;9.44;81.20
32081;BME280;18593;51.426;7.030;2023-11-21T02:30:20;100073.09;;;9.45;81.35
32081;BME280;18593;51.426;7.030;2023-11-21T02:32:48;100077.59;;;9.44;81.54
32081;BME280;18593;51.426;7.030;2023-11-21T02:35:16;100084.56;;;9.45;81.36
32081;BME280;18593;51.426;7.030;2023-11-21T02:37:44;100080.03;;;9.46;81.46
32081;BME280;18593;51.426;7.030;2023-11-21T02:40:14;100083.75;;;9.45;81.47
32081;BME280;18593;51.426;7.030;2023-11-21T02:42:44;100074.72;;;9.46;81.27
32081;BME280;18593;51.426;7.030;2023-11-21T02:45:12;100080.84;;;9.46;81.37
32081;BME280;18593;51.426;7.030;2023-11-21T02:47:40;100081.06;;;9.45;81.45
32081;BME280;18593;51.426;7.030;2023-11-21T02:50:09;100085.59;;;9.44;81.59
32081;BME280;18593;51.426;7.030;2023-11-21T02:52:36;100094.38;;;9.45;81.75
32081;BME280;18593;51.426;7.030;2023-11-21T02:55:06;100098.91;;;9.44;81.67
32081;BME280;18593;51.426;7.030;2023-11-21T02:57:35;100090.69;;;9.46;81.71
32081;BME280;18593;51.426;7.030;2023-11-21T03:00:04;100091.50;;;9.46;81.74
32081;BME280;18593;51.426;7.030;2023-11-21T03:02:34;100093.97;;;9.48;81.62
32081;BME280;18593;51.426;7.030;2023-11-21T03:05:06;100102.78;;;9.48;81.65
32081;BME280;18593;51.426;7.030;2023-11-21T03:07:36;100103.59;;;9.49;81.71
32081;BME280;18593;51.426;7.030;2023-11-21T03:10:05;100106.25;;;9.49;81.72
32081;BME280;18593;51.426;7.030;2023-11-21T03:12:37;100100.50;;;9.52;81.64
32081;BME280;18593;51.426;7.030;2023-11-21T03:15:06;100103.75;;;9.54;81.61
32081;BME280;18593;51.426;7.030;2023-11-21T03:17:34;100103.75;;;9.54;81.57
32081;BME280;18593;51.426;7.030;2023-11-21T03:20:04;100101.09;;;9.54;81.60
32081;BME280;18593;51.426;7.030;2023-11-21T03:22:36;100101.31;;;9.52;81.79
32081;BME280;18593;51.426;7.030;2023-11-21T03:25:06;100105.84;;;9.52;81.87
32081;BME280;18593;51.426;7.030;2023-11-21T03:27:38;100101.72;;;9.49;81.99
32081;BME280;18593;51.426;7.030;2023-11-21T03:30:09;100106.66;;;9.52;81.83
32081;BME280;18593;51.426;7.030;2023-11-21T03:32:38;100106.66;;;9.52;81.90
32081;BME280;18593;51.426;7.030;2023-11-21T03:35:06;100115.84;;;9.50;81.97
32081;BME280;18593;51.426;7.030;2023-11-21T03:37:36;100117.69;;;9.49;81.94
32081;BME280;18593;51.426;7.030;2023-11-21T03:40:08;100123.84;;;9.50;81.92
32081;BME280;18593;51.426;7.030;2023-11-21T03:42:38;100131.81;;;9.50;81.96
32081;BME280;18593;51.426;7.030;2023-11-21T03:45:07;100135.53;;;9.49;82.14
32081;BME280;18593;51.426;7.030;2023-11-21T03:47:35;100136.34;;;9.49;82.11
32081;BME280;18593;51.426;7.030;2023-11-21T03:50:04;100147.81;;;9.50;81.97
32081;BME280;18593;51.426;7.030;2023-11-21T03:52:32;100149.66;;;9.49;82.10
32081;BME280;18593;51.426;7.030;2023-11-21T03:55:00;100151.50;;;9.49;82.07
32081;BME280;18593;51.426;7.030;2023-11-21T03:57:28;100148.03;;;9.48;82.01
32081;BME280;18593;51.426;7.030;2023-11-21T03:59:57;100152.53;;;9.48;81.98
32081;BME280;18593;51.426;7.030;2023-11-21T04:02:25;100150.47;;;9.50;82.18
32081;BME280;18593;51.426;7.030;2023-11-21T04:04:54;100152.09;;;9.51;81.86
32081;BME280;18593;51.426;7.030;2023-11-21T04:07:22;100162.53;;;9.52;81.96
32081;BME280;18593;51.426;7.030;2023-11-21T04:09:50;100157.00;;;9.54;81.83
32081;BME280;18593;51.426;7.030;2023-11-21T04:12:17;100156.19;;;9.53;81.84
32081;BME280;18593;51.426;7.030;2023-11-21T04:14:45;100151.69;;;9.54;82.00
32081;BME280;18593;51.426;7.030;2023-11-21T04:17:14;100155.38;;;9.53;81.80
32081;BME280;18593;51.426;7.030;2023-11-21T04:19:42;100150.06;;;9.53;81.77
32081;BME280;18593;51.426;7.030;2023-11-21T04:22:09;100159.88;;;9.52;82.02
32081;BME280;18593;51.426;7.030;2023-11-21T04:24:37;100158.44;;;9.50;81.90
32081;BME280;18593;51.426;7.030;2023-11-21T04:27:05;100150.91;;;9.47;81.53
32081;BME280;18593;51.426;7.030;2023-11-21T04:29:32;100160.72;;;9.46;82.09
32081;BME280;18593;51.426;7.030;2023-11-21T04:32:01;100161.75;;;9.45;81.92
32081;BME280;18593;51.426;7.030;2023-11-21T04:34:31;100165.22;;;9.46;81.92
32081;BME280;18593;51.426;7.030;2023-11-21T04:36:58;100164.22;;;9.47;81.83
32081;BME280;18593;51.426;7.030;2023-11-21T04:39:26;100159.91;;;9.46;81.71
32081;BME280;18593;51.426;7.030;2023-11-21T04:41:53;100170.53;;;9.46;81.81
32081;BME280;18593;51.426;7.030;2023-11-21T04:44:21;100159.91;;;9.46;81.55
32081;BME280;18593;51.426;7.030;2023-11-21T04:46:48;100166.47;;;9.43;81.90
32081;BME280;18593;51.426;7.030;2023-11-21T04:49:15;100170.97;;;9.43;82.01
32081;BME280;18593;51.426;7.030;2023-11-21T04:51:46;100171.97;;;9.42;82.03
32081;BME280;18593;51.426;7.030;2023-11-21T04:54:13;100178.16;;;9.42;82.02
32081;BME280;18593;51.426;7.030;2023-11-21T04:56:41;100179.78;;;9.43;81.98
32081;BME280;18593;51.426;7.030;2023-11-21T04:59:08;100181.22;;;9.39;81.97
32081;BME280;18593;51.426;7.030;2023-11-21T05:01:35;100181.22;;;9.39;81.88
32081;BME280;18593;51.426;7.030;2023-11-21T05:04:05;100183.88;;;9.39;81.88
32081;BME280;18593;51.426;7.030;2023-11-21T05:06:34;100190.84;;;9.40;81.79
32081;BME280;18593;51.426;7.030;2023-11-21T05:09:04;100185.94;;;9.37;81.76
32081;BME280;18593;51.426;7.030;2023-11-21T05:11:31;100186.16;;;9.36;81.63
32081;BME280;18593;51.426;7.030;2023-11-21T05:13:59;100194.13;;;9.36;81.60
32081;BME280;18593;51.426;7.030;2023-11-21T05:16:27;100195.16;;;9.35;81.62
32081;BME280;18593;51.426;7.030;2023-11-21T05:18:57;100191.69;;;9.34;81.65
32081;BME280;18593;51.426;7.030;2023-11-21T05:21:27;100195.38;;;9.33;81.55
32081;BME280;18593;51.426;7.030;2023-11-21T05:23:55;100190.25;;;9.32;81.57
32081;BME280;18593;51.426;7.030;2023-11-21T05:26:24;100202.53;;;9.33;81.38
32081;BME280;18593;51.426;7.030;2023-11-21T05:28:52;100208.88;;;9.32;81.33
32081;BME280;18593;51.426;7.030;2023-11-21T05:31:19;100212.78;;;9.29;81.12
32081;BME280;18593;51.426;7.030;2023-11-21T05:33:47;100209.50;;;9.27;81.25
32081;BME280;18593;51.426;7.030;2023-11-21T05:36:15;100214.41;;;9.30;81.12
32081;BME280;18593;51.426;7.030;2023-11-21T05:38:42;100216.84;;;9.32;80.99
32081;BME280;18593;51.426;7.030;2023-11-21T05:41:10;100227.50;;;9.32;80.91
32081;BME280;18593;51.426;7.030;2023-11-21T05:43:41;100233.84;;;9.31;80.86
32081;BME280;18593;51.426;7.030;2023-11-21T05:46:08;100228.97;;;9.27;80.67
32081;BME280;18593;51.426;7.030;2023-11-21T05:48:36;100236.94;;;9.27;80.90
32081;BME280;18593;51.426;7.030;2023-11-21T05:51:04;100233.66;;;9.25;81.06
32081;BME280;18593;51.426;7.030;2023-11-21T05:53:32;100243.72;;;9.23;81.21
32081;BME280;18593;51.426;7.030;2023-11-21T05:56:00;100243.72;;;9.23;81.08
32081;BME280;18593;51.426;7.030;2023-11-21T05:58:27;100248.41;;;9.21;81.18
32081;BME280;18593;51.426;7.030;2023-11-21T06:00:56;100249.22;;;9.22;81.23
32081;BME280;18593;51.426;7.030;2023-11-21T06:03:24;100247.41;;;9.22;81.26
32081;BME280;18593;51.426;7.030;2023-11-21T06:05:51;100254.53;;;9.22;81.37
32081;BME280;18593;51.426;7.030;2023-11-21T06:08:20;100260.50;;;9.24;81.38
32081;BME280;18593;51.426;7.030;2023-11-21T06:10:47;100259.47;;;9.25;81.36
32081;BME280;18593;51.426;7.030;2023-11-21T06:13:15;100263.97;;;9.24;81.18
32081;BME280;18593;51.426;7.030;2023-11-21T06:15:46;100273.59;;;9.25;81.28
32081;BME280;18593;51.426;7.030;2023-11-21T06:18:15;100269.06;;;9.26;81.44
32081;BME280;18593;51.426;7.030;2023-11-21T06:20:46;100280.34;;;9.28;81.32
32081;BME280;18593;51.426;7.030;2023-11-21T06:23:14;100283.59;;;9.30;81.42
32081;BME280;18593;51.426;7.030;2023-11-21T06:25:42;100286.91;;;9.32;81.64
32081;BME280;18593;51.426;7.030;2023-11-21T06:28:10;100288.31;;;9.35;81.39
32081;BME280;18593;51.426;7.030;2023-11-21T06:30:38;100296.28;;;9.35;81.25
32081;BME280;18593;51.426;7.030;2023-11-21T06:33:05;100295.47;;;9.34;81.42
32081;BME280;18593;51.426;7.030;2023-11-21T06:35:35;100302.88;;;9.32;81.49
32081;BME280;18593;51.426;7.030;2023-11-21T06:38:03;100298.53;;;9.31;81.41
32081;BME280;18593;51.426;7.030;2023-11-21T06:40:31;100306.53;;;9.31;81.58
32081;BME280;18593;51.426;7.030;2023-11-21T06:43:00;100316.16;;;9.32;81.60
32081;BME280;18593;51.426;7.030;2023-11-21T06:45:27;100320.66;;;9.32;81.55
32081;BME280;18593;51.426;7.030;2023-11-21T06:47:55;100322.31;;;9.33;81.57
32081;BME280;18593;51.426;7.030;2023-11-21T06:50:22;100322.91;;;9.35;81.69
32081;BME280;18593;51.426;7.030;2023-11-21T06:52:51;100315.53;;;9.37;81.60
32081;BME280;18593;51.426;7.030;2023-11-21T06:55:19;100315.53;;;9.37;81.63
32081;BME280;18593;51.426;7.030;2023-11-21T06:57:47;100331.50;;;9.37;81.79
32081;BME280;18593;51.426;7.030;2023-11-21T07:00:17;100332.34;;;9.37;81.70
32081;BME280;18593;51.426;7.030;2023-11-21T07:02:45;100337.84;;;9.36;81.97
32081;BME280;18593;51.426;7.030;2023-11-21T07:05:12;100342.75;;;9.39;81.78
32081;BME280;18593;51.426;7.030;2023-11-21T07:07:41;100347.47;;;9.37;81.98
32081;BME280;18593;51.426;7.030;2023-11-21T07:10:11;100358.94;;;9.37;81.88
32081;BME280;18593;51.426;7.030;2023-11-21T07:12:38;100362.44;;;9.38;82.08
32081;BME280;18593;51.426;7.030;2023-11-21T07:15:08;100356.88;;;9.39;82.08
32081;BME280;18593;51.426;7.030;2023-11-21T07:17:36;100361.41;;;9.39;81.83
32081;BME280;18593;51.426;7.030;2023-11-21T07:20:05;100366.72;;;9.39;82.22
32081;BME280;18593;51.426;7.030;2023-11-21T07:22:33;100366.72;;;9.39;82.35
32081;BME280;18593;51.426;7.030;2023-11-21T07:25:01;100368.34;;;9.40;82.27
32081;BME280;18593;51.426;7.030;2023-11-21T07:27:30;100369.38;;;9.39;82.27
32081;BME280;18593;51.426;7.030;2023-11-21T07:29:59;100365.91;;;9.38;82.09
32081;BME280;18593;51.426;7.030;2023-11-21T07:32:29;100371.22;;;9.38;82.11
32081;BME280;18593;51.426;7.030;2023-11-21T07:34:59;100370.41;;;9.38;81.98
32081;BME280;18593;51.426;7.030;2023-11-21T07:37:28;100378.59;;;9.36;82.12
32081;BME280;18593;51.426;7.030;2023-11-21T07:39:56;100379.63;;;9.35;82.41
32081;BME280;18593;51.426;7.030;2023-11-21T07:42:23;100382.28;;;9.35;82.61
32081;BME280;18593;51.426;7.030;2023-11-21T07:44:54;100369.59;;;9.37;82.69
32081;BME280;18593;51.426;7.030;2023-11-21T07:47:22;100372.84;;;9.39;82.67
32081;BME280;18593;51.426;7.030;2023-11-21T07:49:53;100370.78;;;9.41;82.80
32081;BME280;18593;51.426;7.030;2023-11-21T07:52:22;100367.94;;;9.43;82.83
32081;BME280;18593;51.426;7.030;2023-11-21T07:54:49;100376.53;;;9.45;82.93
32081;BME280;18593;51.426;7.030;2023-11-21T07:57:17;100376.13;;;9.48;82.97
32081;BME280;18593;51.426;7.030;2023-11-21T07:59:44;100381.25;;;9.49;83.29
32081;BME280;18593;51.426;7.030;2023-11-21T08:02:13;100392.50;;;9.51;83.63
32081;BME280;18593;51.426;7.030;2023-11-21T08:04:42;100394.75;;;9.54;83.80
32081;BME280;18593;51.426;7.030;2023-11-21T08:07:10;100403.16;;;9.58;83.92
32081;BME280;18593;51.426;7.030;2023-11-21T08:09:38;100412.38;;;9.62;84.15
32081;BME280;18593;51.426;7.030;2023-11-21T08:12:06;100418.31;;;9.64;84.52
32081;BME280;18593;51.426;7.030;2023-11-21T08:14:33;100421.38;;;9.68;85.03
32081;BME280;18593;51.426;7.030;2023-11-21T08:17:05;100434.06;;;9.72;84.99
32081;BME280;18593;51.426;7.030;2023-11-21T08:19:38;100445.31;;;9.74;84.94
32081;BME280;18593;51.426;7.030;2023-11-21T08:22:05;100448.00;;;9.74;85.11
32081;BME280;18593;51.426;7.030;2023-11-21T08:24:34;100443.47;;;9.75;85.04
32081;BME280;18593;51.426;7.030;2023-11-21T08:27:02;100448.44;;;9.71;85.46
32081;BME280;18593;51.426;7.030;2023-11-21T08:29:30;100463.16;;;9.74;85.64
32081;BME280;18593;51.426;7.030;2023-11-21T08:32:02;100472.19;;;9.73;85.77
32081;BME280;18593;51.426;7.030;2023-11-21T08:34:31;100472.78;;;9.68;86.09
32081;BME280;18593;51.426;7.030;2023-11-21T08:37:00;100477.50;;;9.66;86.18
32081;BME280;18593;51.426;7.030;2023-11-21T08:39:28;100481.59;;;9.69;86.25
32081;BME280;18593;51.426;7.030;2023-11-21T08:41:57;100484.69;;;9.72;86.24
32081;BME280;18593;51.426;7.030;2023-11-21T08:44:26;100487.94;;;9.74;86.35
32081;BME280;18593;51.426;7.030;2023-11-21T08:46:53;100481.41;;;9.77;86.24
32081;BME280;18593;51.426;7.030;2023-11-21T08:49:20;100481.19;;;9.78;85.96
32081;BME280;18593;51.426;7.030;2023-11-21T08:51:48;100480.16;;;9.79;85.99
32081;BME280;18593;51.426;7.030;2023-11-21T08:54:18;100484.25;;;9.82;85.85
32081;BME280;18593;51.426;7.030;2023-11-21T08:56:46;100489.38;;;9.84;86.25
32081;BME280;18593;51.426;7.030;2023-11-21T08:59:14;100488.75;;;9.75;86.20
32081;BME280;18593;51.426;7.030;2023-11-21T09:01:41;100491.03;;;9.78;86.08
32081;BME280;18593;51.426;7.030;2023-11-21T09:04:09;100497.59;;;9.82;85.92
32081;BME280;18593;51.426;7.030;2023-11-21T09:06:37;100499.00;;;9.85;85.94
32081;BME280;18593;51.426;7.030;2023-11-21T09:09:05;100505.78;;;9.87;86.09
32081;BME280;18593;51.426;7.030;2023-11-21T09:11:35;100503.94;;;9.88;86.45
32081;BME280;18593;51.426;7.030;2023-11-21T09:14:04;100509.84;;;9.90;86.17
32081;BME280;18593;51.426;7.030;2023-11-21T09:16:31;100515.00;;;9.91;86.14
32081;BME280;18593;51.426;7.030;2023-11-21T09:19:01;100517.22;;;9.94;86.55
32081;BME280;18593;51.426;7.030;2023-11-21T09:21:31;100512.53;;;9.96;86.69
32081;BME280;18593;51.426;7.030;2023-11-21T09:24:05;100516.19;;;9.95;86.64
32081;BME280;18593;51.426;7.030;2023-11-21T09:26:37;100517.88;;;9.96;87.05
32081;BME280;18593;51.426;7.030;2023-11-21T09:29:04;100523.78;;;9.98;86.67
32081;BME280;18593;51.426;7.030;2023-11-21T09:31:34;100531.78;;;9.98;86.87
32081;BME280;18593;51.426;7.030;2023-11-21T09:34:02;100540.19;;;10.02;87.05
32081;BME280;18593;51.426;7.030;2023-11-21T09:36:29;100535.47;;;10.04;86.70
32081;BME280;18593;51.426;7.030;2023-11-21T09:38:58;100530.56;;;10.01;86.87
32081;BME280;18593;51.426;7.030;2023-11-21T09:41:34;100543.28;;;10.05;87.04
32081;BME280;18593;51.426;7.030;2023-11-21T09:44:09;100545.72;;;10.07;86.84
32081;BME280;18593;51.426;7.030;2023-11-21T09:46:41;100543.66;;;10.09;86.89
32081;BME280;18593;51.426;7.030;2023-11-21T09:49:10;100547.78;;;10.12;87.19
32081;BME280;18593;51.426;7.030;2023-11-21T09:51:40;100544.91;;;10.13;86.87
32081;BME280;18593;51.426;7.030;2023-11-21T09:54:10;100551.84;;;10.14;86.96
32081;BME280;18593;51.426;7.030;2023-11-21T09:56:39;100543.47;;;10.04;87.22
32081;BME280;18593;51.426;7.030;2023-11-21T09:59:14;100550.41;;;10.05;87.18
32081;BME280;18593;51.426;7.030;2023-11-21T10:01:43;100551.06;;;10.07;87.37
32081;BME280;18593;51.426;7.030;2023-11-21T10:04:11;100555.34;;;10.08;87.21
32081;BME280;18593;51.426;7.030;2023-11-21T10:06:40;100555.56;;;10.13;87.34
32081;BME280;18593;51.426;7.030;2023-11-21T10:09:11;100548.19;;;10.15;87.37
32081;BME280;18593;51.426;7.030;2023-11-21T10:11:41;100561.91;;;10.19;87.25
32081;BME280;18593;51.426;7.030;2023-11-21T10:14:12;100564.97;;;10.22;87.76
32081;BME280;18593;51.426;7.030;2023-11-21T10:16:41;100565.19;;;10.21;87.60
32081;BME280;18593;51.426;7.030;2023-11-21T10:19:13;100565.78;;;10.23;87.79
32081;BME280;18593;51.426;7.030;2023-11-21T10:21:42;100564.63;;;10.25;87.96
32081;BME280;18593;51.426;7.030;2023-11-21T10:24:10;100558.25;;;10.26;88.18
32081;BME280;18593;51.426;7.030;2023-11-21T10:26:38;100557.22;;;10.27;87.55
32081;BME280;18593;51.426;7.030;2023-11-21T10:29:06;100560.47;;;10.29;87.59
32081;BME280;18593;51.426;7.030;2023-11-21T10:31:35;100562.53;;;10.27;87.32
32081;BME280;18593;51.426;7.030;2023-11-21T10:34:14;100562.97;;;10.31;87.47
32081;BME280;18593;51.426;7.030;2023-11-21T10:36:42;100569.53;;;10.35;87.24
32081;BME280;18593;51.426;7.030;2023-11-21T10:39:13;100564.56;;;10.39;87.05
32081;BME280;18593;51.426;7.030;2023-11-21T10:41:44;100578.53;;;10.34;86.78
32081;BME280;18593;51.426;7.030;2023-11-21T10:44:14;100570.53;;;10.34;87.42
32081;BME280;18593;51.426;7.030;2023-11-21T10:46:50;100575.22;;;10.39;87.50
32081;BME280;18593;51.426;7.030;2023-11-21T10:49:21;100574.84;;;10.42;87.48
32081;BME280;18593;51.426;7.030;2023-11-21T10:51:51;100579.75;;;10.45;87.16
32081;BME280;18593;51.426;7.030;2023-11-21T10:54:20;100583.63;;;10.49;87.02
32081;BME280;18593;51.426;7.030;2023-11-21T10:56:51;100586.09;;;10.50;86.80
32081;BME280;18593;51.426;7.030;2023-11-21T10:59:20;100589.59;;;10.51;86.95
32081;BME280;18593;51.426;7.030;2023-11-21T11:01:58;100600.66;;;10.48;87.37
32081;BME280;18593;51.426;7.030;2023-11-21T11:04:28;100597.19;;;10.47;87.46
32081;BME280;18593;51.426;7.030;2023-11-21T11:06:58;100596.16;;;10.48;87.37
32081;BME280;18593;51.426;7.030;2023-11-21T11:09:31;100600.25;;;10.51;86.93
32081;BME280;18593;51.426;7.030;2023-11-21T11:11:59;100597.16;;;10.54;87.20
32081;BME280;18593;51.426;7.030;2023-11-21T11:14:30;100604.97;;;10.55;87.04
32081;BME280;18593;51.426;7.030;2023-11-21T11:17:00;100596.56;;;10.52;86.76
32081;BME280;18593;51.426;7.030;2023-11-21T11:19:29;100597.16;;;10.54;86.99
32081;BME280;18593;51.426;7.030;2023-11-21T11:22:11;100600.03;;;10.52;86.77
32081;BME280;18593;51.426;7.030;2023-11-21T11:24:58;100603.34;;;10.54;86.90
32081;BME280;18593;51.426;7.030;2023-11-21T11:27:39;100601.06;;;10.58;87.13
32081;BME280;18593;51.426;7.030;2023-11-21T11:30:20;100601.88;;;10.58;86.70
32081;BME280;18593;51.426;7.030;2023-11-21T11:33:04;100596.94;;;10.62;86.97
32081;BME280;18593;51.426;7.030;2023-11-21T11:35:50;100598.56;;;10.63;86.55
32081;BME280;18593;51.426;7.030;2023-11-21T11:38:21;100601.47;;;10.62;86.51
32081;BME280;18593;51.426;7.030;2023-11-21T11:40:53;100599.19;;;10.58;86.91
32081;BME280;18593;51.426;7.030;2023-11-21T11:43:25;100604.53;;;10.58;86.85
32081;BME280;18593;51.426;7.030;2023-11-21T11:45:56;100608.66;;;10.61;86.56
32081;BME280;18593;51.426;7.030;2023-11-21T11:48:26;100606.59;;;10.63;86.35
32081;BME280;18593;51.426;7.030;2023-11-21T11:51:05;100604.72;;;10.64;85.87
32081;BME280;18593;51.426;7.030;2023-11-21T11:53:40;100601.06;;;10.58;85.89
32081;BME280;18593;51.426;7.030;2023-11-21T11:56:26;100608.06;;;10.59;86.24
32081;BME280;18593;51.426;7.030;2023-11-21T11:58:56;100611.53;;;10.60;86.29
32081;BME280;18593;51.426;7.030;2023-11-21T12:01:30;100608.25;;;10.64;86.50
32081;BME280;18593;51.426;7.030;2023-11-21T12:04:25;100618.47;;;10.67;86.30
32081;BME280;18593;51.426;7.030;2023-11-21T12:07:02;100620.31;;;10.67;86.28
32081;BME280;18593;51.426;7.030;2023-11-21T12:09:31;100620.09;;;10.68;86.26
32081;BME280;18593;51.426;7.030;2023-11-21T12:11:59;100628.75;;;10.70;85.79
32081;BME280;18593;51.426;7.030;2023-11-21T12:14:27;100626.06;;;10.70;85.67
32081;BME280;18593;51.426;7.030;2023-11-21T12:17:37;100634.28;;;10.69;86.19
32081;BME280;18593;51.426;7.030;2023-11-21T12:20:07;100627.09;;;10.69;86.09
32081;BME280;18593;51.426;7.030;2023-11-21T12:22:43;100630.59;;;10.70;85.94
32081;BME280;18593;51.426;7.030;2023-11-21T12:25:11;100629.78;;;10.69;86.06
32081;BME280;18593;51.426;7.030;2023-11-21T12:27:43;100633.03;;;10.71;86.20
32081;BME280;18593;51.426;7.030;2023-11-21T12:30:13;100633.03;;;10.71;86.04
32081;BME280;18593;51.426;7.030;2023-11-21T12:32:42;100636.75;;;10.70;86.10
32081;BME280;18593;51.426;7.030;2023-11-21T12:35:12;100645.34;;;10.72;86.23
32081;BME280;18593;51.426;7.030;2023-11-21T12:37:41;100649.66;;;10.73;86.29
32081;BME280;18593;51.426;7.030;2023-11-21T12:40:11;100647.63;;;10.69;85.72
32081;BME280;18593;51.426;7.030;2023-11-21T12:42:42;100657.88;;;10.65;85.40
32081;BME280;18593;51.426;7.030;2023-11-21T12:45:18;100655.81;;;10.67;85.54
32081;BME280;18593;51.426;7.030;2023-11-21T12:47:48;100660.97;;;10.62;85.78
32081;BME280;18593;51.426;7.030;2023-11-21T12:50:19;100665.06;;;10.65;85.95
32081;BME280;18593;51.426;7.030;2023-11-21T12:52:51;100664.25;;;10.57;86.08
32081;BME280;18593;51.426;7.030;2023-11-21T12:55:23;100654.38;;;10.58;86.16
32081;BME280;18593;51.426;7.030;2023-11-21T12:57:54;100670.81;;;10.55;86.15
32081;BME280;18593;51.426;7.030;2023-11-21T13:00:28;100669.56;;;10.57;86.45
32081;BME280;18593;51.426;7.030;2023-11-21T13:02:59;100680.84;;;10.53;86.21
32081;BME280;18593;51.426;7.030;2023-11-21T13:05:30;100670.81;;;10.55;86.66
32081;BME280;18593;51.426;7.030;2023-11-21T13:07:59;100683.53;;;10.53;86.79
32081;BME280;18593;51.426;7.030;2023-11-21T13:10:31;100680.84;;;10.53;87.01